This is the latest recevied weather packets stored in our database for station/object EA7URS-13. If no packets are shown the sender has not sent any weather packets the latest 10 day(s).
| Time | Temp. | Humidity | Pressure | Rain* | Wind** | Luminosity | Snow |
|---|---|---|---|---|---|---|---|
| 1787950412 | 23.89° C | 58% | 1012.4 hPa | 0 mm | - | 0 W/m² | - |
| 1787950110 | 23.89° C | 58% | 1012.4 hPa | 0 mm | - | 0 W/m² | - |
| 1787949810 | 23.33° C | 59% | 1012.3 hPa | 0 mm | - | 0 W/m² | - |
| 1787949509 | 23.33° C | 59% | 1012.3 hPa | 0 mm | - | 0 W/m² | - |
| 1787949208 | 23.89° C | 58% | 1012.2 hPa | 0 mm | - | 0 W/m² | - |
| 1787948907 | 23.89° C | 58% | 1012.2 hPa | 0 mm | - | 0 W/m² | - |
| 1787948605 | 23.89° C | 58% | 1011.8 hPa | 0 mm | - | 0 W/m² | - |
| 1787948304 | 23.89° C | 58% | 1011.8 hPa | 0 mm | - | 0 W/m² | - |
| 1787948003 | 24.44° C | 56% | 1012 hPa | 0 mm | - | 0 W/m² | - |
| 1787947702 | 24.44° C | 56% | 1012 hPa | 0 mm | - | 0 W/m² | - |
| 1787947401 | 25° C | 52% | 1011.7 hPa | 0 mm | - | 0 W/m² | - |
| 1787947100 | 25° C | 52% | 1011.7 hPa | 0 mm | - | 0 W/m² | - |
| 1787946798 | 25° C | 51% | 1011.8 hPa | 0 mm | - | 0 W/m² | - |
| 1787946498 | 25° C | 51% | 1011.8 hPa | 0 mm | - | 0 W/m² | - |
| 1787946196 | 25.56° C | 48% | 1011.3 hPa | 0 mm | - | 0 W/m² | - |
| 1787945895 | 25.56° C | 48% | 1011.3 hPa | 0 mm | - | 0 W/m² | - |
| 1787945594 | 26.11° C | 46% | 1011.3 hPa | 0 mm | - | 0 W/m² | - |
| 1787945293 | 26.11° C | 46% | 1011.3 hPa | 0 mm | - | 0 W/m² | - |
| 1787944992 | 26.67° C | 43% | 1011.2 hPa | 0 mm | - | 0 W/m² | - |
| 1787944691 | 26.67° C | 43% | 1011.2 hPa | 0 mm | - | 0 W/m² | - |
| 1787944390 | 26.67° C | 42% | 1011 hPa | 0 mm | - | 1 W/m² | - |
| 1787944089 | 26.67° C | 42% | 1011 hPa | 0 mm | - | 1 W/m² | - |
| 1787943788 | 27.22° C | 41% | 1010.9 hPa | 0 mm | - | 4 W/m² | - |
| 1787943487 | 27.22° C | 41% | 1010.9 hPa | 0 mm | - | 4 W/m² | - |
| 1787943186 | 27.78° C | 40% | 1010.9 hPa | 0 mm | - | 10 W/m² | - |
* Rain latest hour (hover to see other rain measurements)
** Current wind speed in m/s (hover to see current wind gust speed)